createdAt,value
2023-02-19T00:00:27.651Z,99344.45
2023-02-19T00:05:50.523Z,99344.99
2023-02-19T00:10:53.632Z,99340.37
2023-02-19T00:15:57.592Z,99344.09
2023-02-19T00:21:00.769Z,99346.94
2023-02-19T00:26:18.233Z,99348.33
2023-02-19T00:31:23.662Z,99352.95
2023-02-19T00:36:28.329Z,99354.46
2023-02-19T00:41:31.438Z,99345.70
2023-02-19T00:46:39.591Z,99344.77
2023-02-19T00:51:42.473Z,99345.21
2023-02-19T00:56:45.587Z,99347.38
2023-02-19T01:01:49.984Z,99358.78
2023-02-19T01:06:53.021Z,99367.43
2023-02-19T01:11:56.029Z,99377.48
2023-02-19T01:16:59.543Z,99370.92
2023-02-19T01:22:02.343Z,99365.17
2023-02-19T01:27:05.250Z,99370.00
2023-02-19T01:32:08.261Z,99368.80
2023-02-19T01:37:12.397Z,99361.83
2023-02-19T01:42:17.183Z,99359.63
2023-02-19T01:47:21.165Z,99362.98
2023-02-19T01:52:36.972Z,99355.33
2023-02-19T01:57:46.535Z,99354.96
2023-02-19T02:02:53.053Z,99357.70
2023-02-19T02:08:15.692Z,99359.58
2023-02-19T02:13:19.110Z,99355.30
2023-02-19T02:18:22.010Z,99353.05
2023-02-19T02:23:30.856Z,99350.20
2023-02-19T02:28:58.041Z,99345.17
2023-02-19T02:34:17.523Z,99351.70
2023-02-19T02:39:22.622Z,99354.67
2023-02-19T02:44:35.320Z,99363.04
2023-02-19T02:49:59.127Z,99368.64
2023-02-19T02:55:05.182Z,99364.86
2023-02-19T03:00:09.110Z,99360.92
2023-02-19T03:05:41.822Z,99358.02
2023-02-19T03:10:51.706Z,99353.77
2023-02-19T03:16:23.458Z,99350.38
2023-02-19T03:21:28.621Z,99353.88
2023-02-19T03:26:33.882Z,99346.98
2023-02-19T03:31:39.462Z,99346.98
2023-02-19T03:36:46.440Z,99350.23
2023-02-19T03:42:01.128Z,99347.66
2023-02-19T03:47:43.838Z,99350.17
2023-02-19T03:52:55.774Z,99346.80
2023-02-19T03:58:10.354Z,99340.17
2023-02-19T04:03:13.261Z,99338.50
2023-02-19T04:08:22.212Z,99337.45
2023-02-19T04:13:31.256Z,99335.61
2023-02-19T04:18:38.565Z,99336.17
2023-02-19T04:23:44.933Z,99334.00
2023-02-19T04:28:48.064Z,99336.00
2023-02-19T04:33:50.960Z,99336.16
2023-02-19T04:38:53.861Z,99326.60
2023-02-19T04:43:56.763Z,99324.42
2023-02-19T04:48:59.566Z,99330.52
2023-02-19T04:54:02.473Z,99327.95
2023-02-19T04:59:05.884Z,99325.41
2023-02-19T05:04:09.114Z,99321.84
2023-02-19T05:09:12.001Z,99320.48
2023-02-19T05:14:14.903Z,99314.28
2023-02-19T05:19:18.084Z,99312.73
2023-02-19T05:24:21.020Z,99317.96
2023-02-19T05:29:24.132Z,99313.00
2023-02-19T05:34:27.054Z,99313.75
2023-02-19T05:39:29.937Z,99312.91
2023-02-19T05:44:32.843Z,99314.80
2023-02-19T05:49:36.157Z,99320.96
2023-02-19T05:54:39.262Z,99323.38
2023-02-19T05:59:42.166Z,99330.06
2023-02-19T06:04:45.072Z,99329.34
2023-02-19T06:09:51.428Z,99332.36
2023-02-19T06:14:54.359Z,99338.96
2023-02-19T06:19:57.266Z,99341.04
2023-02-19T06:25:00.105Z,99343.60
2023-02-19T06:30:03.121Z,99354.23
2023-02-19T06:35:06.392Z,99358.21
2023-02-19T06:40:10.087Z,99360.75
2023-02-19T06:45:12.916Z,99362.16
2023-02-19T06:50:15.938Z,99369.34
2023-02-19T06:55:18.828Z,99372.56
2023-02-19T07:00:22.049Z,99373.50
2023-02-19T07:05:24.941Z,99373.30
2023-02-19T07:10:27.843Z,99379.55
2023-02-19T07:15:30.746Z,99387.73
2023-02-19T07:20:33.962Z,99392.80
2023-02-19T07:25:38.107Z,99403.30
2023-02-19T07:30:41.024Z,99411.61
2023-02-19T07:35:48.298Z,99416.90
2023-02-19T07:40:55.774Z,99422.52
2023-02-19T07:45:59.616Z,99426.46
2023-02-19T07:51:05.751Z,99433.66
2023-02-19T07:56:11.697Z,99434.10
2023-02-19T08:01:17.714Z,99430.51
2023-02-19T08:06:20.576Z,99434.63
2023-02-19T08:11:42.632Z,99437.64
2023-02-19T08:16:50.549Z,99446.79
2023-02-19T08:21:53.803Z,99456.23
2023-02-19T08:26:56.969Z,99461.66
2023-02-19T08:31:59.792Z,99461.98
2023-02-19T08:37:02.787Z,99459.40
2023-02-19T08:42:07.120Z,99460.26
2023-02-19T08:47:10.020Z,99474.91
2023-02-19T08:52:12.922Z,99480.74
2023-02-19T08:57:15.826Z,99489.82
2023-02-19T09:02:18.833Z,99488.70
2023-02-19T09:07:22.160Z,99494.80
2023-02-19T09:12:25.760Z,99500.69
2023-02-19T09:17:28.671Z,99497.54
2023-02-19T09:22:31.577Z,99500.60
2023-02-19T09:27:34.597Z,99503.73
2023-02-19T09:32:37.488Z,99507.61
2023-02-19T09:37:40.295Z,99509.78
2023-02-19T09:42:43.877Z,99514.64
2023-02-19T09:47:47.230Z,99514.59
2023-02-19T09:52:55.151Z,99521.50
2023-02-19T09:58:01.521Z,99530.42
2023-02-19T10:03:11.507Z,99529.52
2023-02-19T10:08:20.446Z,99534.29
2023-02-19T10:13:31.134Z,99540.54
2023-02-19T10:18:42.645Z,99543.25
2023-02-19T10:23:47.590Z,99551.20
2023-02-19T10:28:50.495Z,99555.06
2023-02-19T10:33:56.063Z,99565.46
2023-02-19T10:39:00.728Z,99561.61
2023-02-19T10:44:07.139Z,99554.14
2023-02-19T10:49:33.041Z,99561.77
2023-02-19T10:54:36.899Z,99567.28
2023-02-19T10:59:50.388Z,99576.50
2023-02-19T11:05:20.517Z,99579.66
2023-02-19T11:10:26.645Z,99578.86
2023-02-19T11:15:35.504Z,99580.66
2023-02-19T11:21:10.864Z,99580.96
2023-02-19T11:26:23.181Z,99586.05
2023-02-19T11:31:32.264Z,99593.49
2023-02-19T11:36:36.869Z,99597.91
2023-02-19T11:41:58.618Z,99599.42
2023-02-19T11:47:31.015Z,99603.35
2023-02-19T11:52:52.144Z,99610.52
2023-02-19T11:58:25.562Z,99609.27
2023-02-19T12:04:02.052Z,99611.08
2023-02-19T12:09:23.392Z,99615.75
2023-02-19T12:14:52.633Z,99615.90
2023-02-19T12:20:07.057Z,99619.77
2023-02-19T12:25:48.186Z,99630.64
2023-02-19T12:31:13.035Z,99627.11
2023-02-19T12:36:31.063Z,99634.65
2023-02-19T12:41:47.670Z,99641.45
2023-02-19T12:46:59.299Z,99654.73
2023-02-19T12:52:32.103Z,99652.79
2023-02-19T12:57:37.273Z,99653.15
2023-02-19T13:03:06.012Z,99649.69
2023-02-19T13:08:19.327Z,99655.66
2023-02-19T13:13:44.366Z,99663.67
2023-02-19T13:18:55.447Z,99666.00
2023-02-19T13:23:58.501Z,99676.29
2023-02-19T13:29:26.033Z,99679.20
2023-02-19T13:35:06.012Z,99675.16
2023-02-19T13:40:27.652Z,99682.27
2023-02-19T13:45:46.436Z,99680.66
2023-02-19T13:50:50.222Z,99684.26
2023-02-19T13:55:53.314Z,99688.08
2023-02-19T14:00:56.263Z,99694.70
2023-02-19T14:06:02.772Z,99699.83
2023-02-19T14:11:06.273Z,99705.44
2023-02-19T14:16:33.256Z,99711.14
2023-02-19T14:21:41.370Z,99714.42
2023-02-19T14:26:44.682Z,99718.23
2023-02-19T14:31:47.609Z,99723.30
2023-02-19T14:36:55.605Z,99725.35
2023-02-19T14:42:02.296Z,99734.35
2023-02-19T14:47:13.804Z,99743.98
2023-02-19T14:52:32.377Z,99739.81
2023-02-19T14:57:45.951Z,99745.90
2023-02-19T15:02:51.702Z,99759.48
2023-02-19T15:07:59.522Z,99761.45
2023-02-19T15:13:11.759Z,99761.05
2023-02-19T15:18:23.654Z,99768.66
2023-02-19T15:23:30.664Z,99770.80
2023-02-19T15:28:34.593Z,99780.46
2023-02-19T15:33:37.597Z,99792.65
2023-02-19T15:38:40.601Z,99806.30
2023-02-19T15:43:50.889Z,99812.42
2023-02-19T15:49:01.425Z,99817.95
2023-02-19T15:54:15.231Z,99832.23
2023-02-19T15:59:29.088Z,99838.55
2023-02-19T16:04:34.754Z,99848.54
2023-02-19T16:09:40.217Z,99853.17
2023-02-19T16:14:43.121Z,99853.41
2023-02-19T16:19:48.089Z,99863.00
2023-02-19T16:24:55.385Z,99876.55
2023-02-19T16:29:59.157Z,99885.70
2023-02-19T16:35:02.214Z,99892.91
2023-02-19T16:40:08.212Z,99892.75
2023-02-19T16:45:11.207Z,99894.09
2023-02-19T16:50:22.297Z,99891.89
2023-02-19T16:55:25.678Z,99898.05
2023-02-19T17:00:31.278Z,99911.56
2023-02-19T17:05:34.280Z,99915.58
2023-02-19T17:10:37.185Z,99923.84
2023-02-19T17:15:39.991Z,99937.27
2023-02-19T17:20:48.639Z,99947.55
2023-02-19T17:25:52.103Z,99949.84
2023-02-19T17:30:55.045Z,99952.25
2023-02-19T17:35:58.472Z,99952.43
2023-02-19T17:41:01.365Z,99947.69
2023-02-19T17:46:04.701Z,99947.23
2023-02-19T17:51:07.682Z,99948.98
2023-02-19T17:56:15.810Z,99956.02
2023-02-19T18:01:18.761Z,99956.89
2023-02-19T18:06:21.836Z,99959.30
2023-02-19T18:11:24.840Z,99970.64
2023-02-19T18:16:27.779Z,99975.84
2023-02-19T18:21:30.639Z,99980.52
2023-02-19T18:26:34.515Z,99977.50
2023-02-19T18:31:37.969Z,99978.68
2023-02-19T18:36:45.187Z,99978.61
2023-02-19T18:41:49.540Z,99977.48
2023-02-19T18:46:52.738Z,99978.33
2023-02-19T18:51:56.234Z,99985.58
2023-02-19T18:57:00.839Z,99995.23
2023-02-19T19:02:05.244Z,100000.91
2023-02-19T19:07:10.206Z,100006.40
2023-02-19T19:12:13.209Z,100004.43
2023-02-19T19:17:16.104Z,99994.48
2023-02-19T19:22:22.900Z,99990.42
2023-02-19T19:27:26.214Z,99984.89
2023-02-19T19:32:29.122Z,99980.94
2023-02-19T19:37:32.132Z,99977.86
2023-02-19T19:42:35.847Z,99979.58
2023-02-19T19:47:38.759Z,99992.30
2023-02-19T19:52:41.962Z,99980.49
2023-02-19T19:57:44.978Z,99973.93
2023-02-19T20:02:48.218Z,99972.13
2023-02-19T20:07:53.727Z,99977.98
2023-02-19T20:12:56.650Z,99981.27
2023-02-19T20:17:59.657Z,99991.56
2023-02-19T20:23:02.558Z,100001.06
2023-02-19T20:28:05.897Z,99999.73
2023-02-19T20:33:08.772Z,100007.30
2023-02-19T20:38:15.163Z,100005.69
2023-02-19T20:43:18.372Z,100009.63
2023-02-19T20:48:21.376Z,100015.30
2023-02-19T20:53:24.281Z,100012.79
2023-02-19T20:58:27.904Z,100009.41
2023-02-19T21:03:30.911Z,100006.44
2023-02-19T21:08:33.821Z,100008.27
2023-02-19T21:13:36.922Z,100002.89
2023-02-19T21:18:39.931Z,100001.30
2023-02-19T21:23:42.839Z,100003.25
2023-02-19T21:28:45.738Z,100006.11
2023-02-19T21:33:49.059Z,100007.58
2023-02-19T21:38:51.955Z,100007.10
2023-02-19T21:43:56.802Z,100005.20
2023-02-19T21:49:00.714Z,100001.17
2023-02-19T21:54:04.762Z,99990.61
2023-02-19T21:59:07.666Z,99984.15
2023-02-19T22:04:17.121Z,99988.24
2023-02-19T22:09:20.035Z,99989.20
2023-02-19T22:14:22.894Z,99984.98
2023-02-19T22:19:25.831Z,99975.44
2023-02-19T22:24:28.738Z,99980.00
2023-02-19T22:29:31.645Z,99983.18
2023-02-19T22:34:39.659Z,99983.44
2023-02-19T22:39:43.181Z,99976.70
2023-02-19T22:44:45.988Z,99975.10
2023-02-19T22:49:48.887Z,99972.20
2023-02-19T22:54:52.692Z,99972.27
2023-02-19T22:59:55.646Z,99972.69
2023-02-19T23:04:58.626Z,99964.91
2023-02-19T23:10:01.437Z,99964.67
2023-02-19T23:15:05.986Z,99959.09
2023-02-19T23:20:09.551Z,99952.08
2023-02-19T23:25:12.406Z,99950.65
2023-02-19T23:30:17.289Z,99944.41
2023-02-19T23:35:20.358Z,99944.36
2023-02-19T23:40:23.358Z,99941.88
2023-02-19T23:45:26.373Z,99935.65
2023-02-19T23:50:29.266Z,99939.09
2023-02-19T23:55:32.167Z,99939.66
